createdAt,value
2023-02-17T00:00:08.028Z,90.50
2023-02-17T00:02:36.810Z,90.70
2023-02-17T00:05:07.491Z,90.80
2023-02-17T00:07:40.575Z,90.70
2023-02-17T00:10:09.856Z,90.70
2023-02-17T00:12:38.422Z,90.60
2023-02-17T00:15:07.488Z,90.70
2023-02-17T00:17:36.051Z,90.60
2023-02-17T00:20:06.199Z,90.60
2023-02-17T00:22:34.639Z,90.60
2023-02-17T00:25:02.970Z,90.70
2023-02-17T00:27:31.290Z,90.80
2023-02-17T00:29:59.613Z,90.70
2023-02-17T00:32:28.234Z,90.70
2023-02-17T00:34:58.531Z,90.80
2023-02-17T00:37:28.304Z,90.90
2023-02-17T00:39:56.835Z,91.10
2023-02-17T00:42:25.206Z,91.30
2023-02-17T00:44:53.627Z,91.10
2023-02-17T00:47:22.129Z,91.30
2023-02-17T00:49:50.504Z,91.40
2023-02-17T00:52:20.377Z,91.40
2023-02-17T00:54:50.186Z,91.50
2023-02-17T00:57:18.497Z,92.10
2023-02-17T00:59:46.889Z,91.60
2023-02-17T01:02:15.279Z,91.50
2023-02-17T01:04:43.830Z,91.70
2023-02-17T01:07:12.132Z,91.80
2023-02-17T01:09:41.208Z,91.60
2023-02-17T01:12:12.878Z,91.70
2023-02-17T01:14:41.337Z,92.00
2023-02-17T01:17:09.737Z,92.10
2023-02-17T01:19:38.056Z,92.00
2023-02-17T01:22:06.489Z,92.00
2023-02-17T01:24:34.958Z,92.00
2023-02-17T01:27:04.806Z,92.00
2023-02-17T01:29:34.477Z,91.90
2023-02-17T01:32:05.315Z,91.80
2023-02-17T01:34:33.723Z,91.70
2023-02-17T01:37:02.148Z,91.60
2023-02-17T01:39:30.627Z,91.50
2023-02-17T01:41:59.062Z,91.60
2023-02-17T01:44:28.065Z,91.50
2023-02-17T01:46:57.973Z,91.60
2023-02-17T01:49:32.765Z,91.80
2023-02-17T01:52:07.990Z,91.90
2023-02-17T01:54:41.946Z,92.20
2023-02-17T01:57:12.480Z,92.20
2023-02-17T01:59:42.120Z,92.20
2023-02-17T02:02:12.542Z,92.20
2023-02-17T02:04:46.681Z,92.10
2023-02-17T02:07:19.116Z,92.20
2023-02-17T02:09:51.826Z,92.30
2023-02-17T02:12:22.502Z,92.30
2023-02-17T02:14:51.798Z,92.30
2023-02-17T02:17:31.125Z,92.40
2023-02-17T02:20:38.778Z,92.40
2023-02-17T02:23:28.557Z,92.50
2023-02-17T02:26:26.677Z,92.70
2023-02-17T02:29:20.438Z,92.90
2023-02-17T02:32:01.224Z,92.90
2023-02-17T02:34:37.215Z,92.90
2023-02-17T02:37:10.310Z,92.90
2023-02-17T02:39:44.039Z,92.80
2023-02-17T02:42:17.967Z,92.70
2023-02-17T02:44:46.737Z,92.70
2023-02-17T02:47:42.266Z,92.60
2023-02-17T02:50:15.276Z,92.50
2023-02-17T02:52:55.276Z,92.50
2023-02-17T02:55:35.581Z,92.50
2023-02-17T02:58:12.568Z,92.50
2023-02-17T03:00:58.410Z,92.60
2023-02-17T03:03:35.392Z,92.70
2023-02-17T03:06:12.975Z,92.60
2023-02-17T03:08:46.533Z,92.70
2023-02-17T03:11:14.976Z,92.80
2023-02-17T03:13:43.318Z,92.80
2023-02-17T03:16:15.677Z,93.00
2023-02-17T03:18:44.077Z,92.90
2023-02-17T03:21:17.250Z,93.00
2023-02-17T03:23:45.679Z,93.00
2023-02-17T03:26:14.065Z,92.90
2023-02-17T03:28:42.427Z,92.70
2023-02-17T03:31:10.894Z,92.60
2023-02-17T03:33:39.623Z,92.60
2023-02-17T03:36:08.622Z,92.60
2023-02-17T03:38:38.279Z,93.00
2023-02-17T03:41:06.623Z,92.70
2023-02-17T03:43:35.484Z,92.30
2023-02-17T03:46:04.049Z,92.20
2023-02-17T03:48:32.570Z,92.30
2023-02-17T03:51:10.420Z,92.30
2023-02-17T03:53:40.186Z,92.40
2023-02-17T03:56:08.776Z,92.70
2023-02-17T03:58:37.214Z,92.90
2023-02-17T04:01:06.077Z,92.90
2023-02-17T04:03:34.807Z,93.00
2023-02-17T04:06:03.855Z,93.10
2023-02-17T04:08:33.160Z,93.30
2023-02-17T04:11:04.682Z,93.30
2023-02-17T04:13:33.200Z,93.30
2023-02-17T04:16:04.441Z,93.40
2023-02-17T04:18:33.959Z,93.60
2023-02-17T04:21:02.573Z,93.70
2023-02-17T04:23:30.951Z,94.00
2023-02-17T04:25:59.323Z,94.20
2023-02-17T04:28:29.064Z,94.30
2023-02-17T04:30:59.965Z,94.70
2023-02-17T04:33:28.562Z,94.40
2023-02-17T04:35:59.820Z,94.40
2023-02-17T04:38:28.852Z,94.50
2023-02-17T04:40:58.372Z,94.60
2023-02-17T04:43:28.862Z,94.70
2023-02-17T04:45:57.857Z,94.70
2023-02-17T04:48:26.804Z,94.60
2023-02-17T04:50:55.180Z,94.60
2023-02-17T04:53:23.671Z,94.50
2023-02-17T04:55:53.931Z,94.40
2023-02-17T04:58:22.850Z,94.40
2023-02-17T05:00:52.882Z,94.50
2023-02-17T05:03:21.512Z,94.80
2023-02-17T05:05:50.962Z,95.00
2023-02-17T05:08:19.319Z,94.60
2023-02-17T05:10:47.801Z,94.60
2023-02-17T05:13:16.140Z,94.70
2023-02-17T05:15:44.840Z,94.70
2023-02-17T05:18:15.812Z,94.50
2023-02-17T05:20:44.382Z,94.40
2023-02-17T05:23:12.745Z,94.10
2023-02-17T05:25:41.765Z,94.00
2023-02-17T05:28:10.248Z,94.00
2023-02-17T05:30:38.757Z,94.10
2023-02-17T05:33:07.131Z,94.50
2023-02-17T05:35:37.371Z,94.70
2023-02-17T05:38:05.759Z,95.00
2023-02-17T05:40:34.303Z,95.10
2023-02-17T05:43:02.671Z,95.20
2023-02-17T05:45:31.079Z,95.40
2023-02-17T05:47:59.430Z,95.40
2023-02-17T05:50:27.805Z,95.40
2023-02-17T05:53:05.252Z,95.60
2023-02-17T05:55:33.794Z,95.70
2023-02-17T05:58:02.219Z,95.60
2023-02-17T06:00:31.113Z,95.60
2023-02-17T06:02:59.598Z,95.80
2023-02-17T06:05:28.009Z,96.10
2023-02-17T06:07:56.443Z,96.20
2023-02-17T06:10:26.155Z,96.40
2023-02-17T06:12:54.485Z,96.40
2023-02-17T06:15:22.994Z,96.30
2023-02-17T06:17:51.447Z,96.40
2023-02-17T06:20:20.066Z,96.00
2023-02-17T06:22:48.498Z,96.00
2023-02-17T06:25:17.285Z,96.10
2023-02-17T06:27:46.968Z,96.20
2023-02-17T06:30:17.685Z,96.30
2023-02-17T06:32:46.092Z,96.40
2023-02-17T06:35:14.810Z,96.40
2023-02-17T06:37:44.633Z,96.40
2023-02-17T06:40:13.695Z,96.30
2023-02-17T06:42:42.130Z,96.30
2023-02-17T06:45:12.232Z,96.30
2023-02-17T06:47:40.729Z,96.30
2023-02-17T06:50:10.391Z,96.30
2023-02-17T06:52:39.223Z,96.30
2023-02-17T06:55:08.233Z,96.40
2023-02-17T06:57:36.622Z,96.20
2023-02-17T07:00:05.826Z,96.00
2023-02-17T07:02:35.791Z,96.00
2023-02-17T07:05:04.294Z,96.00
2023-02-17T07:07:32.650Z,96.00
2023-02-17T07:10:01.117Z,96.00
2023-02-17T07:12:29.880Z,96.00
2023-02-17T07:14:58.216Z,96.00
2023-02-17T07:17:26.631Z,96.00
2023-02-17T07:19:56.301Z,96.00
2023-02-17T07:22:26.815Z,96.10
2023-02-17T07:24:55.136Z,96.10
2023-02-17T07:27:23.507Z,96.10
2023-02-17T07:29:52.035Z,96.30
2023-02-17T07:32:20.375Z,97.00
2023-02-17T07:34:48.936Z,98.60
2023-02-17T07:37:20.122Z,99.90
2023-02-17T07:39:48.496Z,99.90
2023-02-17T07:42:16.893Z,99.90
2023-02-17T07:44:48.203Z,99.90
2023-02-17T07:47:16.608Z,99.80
2023-02-17T07:49:44.940Z,99.20
2023-02-17T07:52:13.288Z,98.60
2023-02-17T07:54:42.947Z,97.90
2023-02-17T07:57:11.392Z,97.10
2023-02-17T07:59:39.738Z,96.10
2023-02-17T08:02:08.270Z,95.00
2023-02-17T08:04:36.701Z,93.80
2023-02-17T08:07:05.065Z,92.80
2023-02-17T08:09:51.034Z,92.00
2023-02-17T08:12:39.239Z,91.40
2023-02-17T08:15:10.129Z,90.80
2023-02-17T08:17:38.843Z,90.60
2023-02-17T08:20:09.333Z,91.20
2023-02-17T08:22:37.936Z,92.80
2023-02-17T08:25:06.708Z,96.30
2023-02-17T08:27:36.403Z,99.90
2023-02-17T08:30:05.302Z,99.90
2023-02-17T08:32:33.804Z,99.90
2023-02-17T08:35:02.264Z,99.90
2023-02-17T08:37:31.930Z,99.90
2023-02-17T08:40:01.774Z,99.90
2023-02-17T08:42:32.907Z,99.90
2023-02-17T08:45:02.923Z,99.90
2023-02-17T08:47:31.410Z,99.90
2023-02-17T08:49:59.752Z,99.50
2023-02-17T08:52:28.165Z,97.10
2023-02-17T08:54:56.634Z,94.60
2023-02-17T08:57:25.105Z,91.40
2023-02-17T08:59:53.934Z,83.50
2023-02-17T09:02:23.592Z,72.80
2023-02-17T09:04:52.113Z,70.60
2023-02-17T09:07:20.821Z,69.20
2023-02-17T09:09:49.272Z,70.50
2023-02-17T09:12:17.629Z,70.90
2023-02-17T09:14:46.090Z,70.10
2023-02-17T09:17:14.536Z,67.80
2023-02-17T09:19:44.364Z,65.30
2023-02-17T09:22:29.751Z,62.60
2023-02-17T09:24:59.924Z,61.10
2023-02-17T09:27:28.447Z,59.00
2023-02-17T09:29:56.924Z,56.50
2023-02-17T09:32:25.520Z,54.90
2023-02-17T09:34:55.604Z,53.70
2023-02-17T09:37:24.848Z,52.40
2023-02-17T09:39:53.294Z,51.60
2023-02-17T09:42:23.552Z,51.40
2023-02-17T09:45:00.113Z,51.00
2023-02-17T09:47:33.938Z,49.10
2023-02-17T09:50:08.494Z,50.00
2023-02-17T09:52:42.371Z,50.30
2023-02-17T09:55:14.633Z,50.60
2023-02-17T09:57:50.605Z,50.90
2023-02-17T10:00:24.670Z,51.20
2023-02-17T10:02:59.205Z,51.40
2023-02-17T10:05:36.391Z,52.60
2023-02-17T10:08:09.632Z,52.80
2023-02-17T10:10:44.518Z,53.10
2023-02-17T10:13:14.485Z,53.40
2023-02-17T10:15:47.941Z,53.60
2023-02-17T10:18:21.216Z,54.00
2023-02-17T10:20:56.792Z,54.20
2023-02-17T10:23:28.150Z,54.40
2023-02-17T10:26:07.390Z,54.70
2023-02-17T10:28:47.608Z,54.80
2023-02-17T10:31:26.750Z,54.80
2023-02-17T10:34:04.325Z,54.50
2023-02-17T10:36:48.171Z,54.30
2023-02-17T10:39:20.710Z,54.20
2023-02-17T10:41:52.703Z,54.30
2023-02-17T10:44:24.719Z,54.40
2023-02-17T10:46:55.341Z,54.40
2023-02-17T10:49:30.026Z,54.70
2023-02-17T10:52:02.953Z,54.80
2023-02-17T10:54:40.523Z,55.00
2023-02-17T10:57:12.433Z,55.20
2023-02-17T10:59:42.138Z,55.30
2023-02-17T11:02:20.575Z,55.20
2023-02-17T11:04:51.147Z,55.20
2023-02-17T11:07:28.214Z,55.10
2023-02-17T11:10:01.883Z,55.10
2023-02-17T11:12:35.001Z,55.20
2023-02-17T11:15:06.310Z,55.40
2023-02-17T11:17:39.609Z,55.60
2023-02-17T11:20:11.014Z,55.90
2023-02-17T11:22:45.262Z,56.20
2023-02-17T11:25:23.957Z,56.40
2023-02-17T11:27:53.418Z,56.80
2023-02-17T11:30:22.837Z,56.90
2023-02-17T11:32:51.953Z,57.00
2023-02-17T11:35:27.846Z,57.20
2023-02-17T11:38:04.147Z,57.30
2023-02-17T11:40:34.063Z,57.40
2023-02-17T11:43:04.834Z,57.50
2023-02-17T11:45:40.939Z,57.50
2023-02-17T11:48:27.076Z,57.50
2023-02-17T11:51:00.196Z,57.50
2023-02-17T11:53:47.946Z,57.60
2023-02-17T11:56:20.197Z,57.70
2023-02-17T11:59:18.685Z,57.90
2023-02-17T12:02:17.202Z,58.00
2023-02-17T12:05:06.014Z,58.30
2023-02-17T12:07:52.873Z,58.60
2023-02-17T12:10:35.622Z,58.70
2023-02-17T12:13:16.410Z,59.00
2023-02-17T12:15:57.084Z,59.30
2023-02-17T12:18:44.554Z,59.50
2023-02-17T12:21:22.004Z,59.80
2023-02-17T12:24:05.770Z,60.00
2023-02-17T12:26:43.444Z,60.10
2023-02-17T12:29:27.776Z,60.10
2023-02-17T12:32:11.344Z,60.20
2023-02-17T12:34:45.090Z,60.40
2023-02-17T12:37:20.862Z,60.70
2023-02-17T12:39:54.251Z,60.80
2023-02-17T12:42:28.376Z,60.90
2023-02-17T12:45:01.188Z,61.00
2023-02-17T12:47:32.571Z,61.00
2023-02-17T12:50:05.169Z,61.20
2023-02-17T12:52:39.921Z,61.20
2023-02-17T12:55:19.898Z,61.20
2023-02-17T12:57:58.135Z,61.40
2023-02-17T13:00:33.616Z,61.70
2023-02-17T13:03:03.704Z,61.60
2023-02-17T13:05:36.721Z,61.70
2023-02-17T13:08:09.649Z,61.60
2023-02-17T13:10:40.290Z,62.00
2023-02-17T13:13:14.419Z,62.10
2023-02-17T13:15:45.400Z,62.30
2023-02-17T13:18:15.970Z,62.70
2023-02-17T13:20:54.571Z,62.70
2023-02-17T13:23:36.828Z,63.10
2023-02-17T13:26:25.676Z,63.30
2023-02-17T13:29:09.002Z,63.60
2023-02-17T13:31:48.737Z,63.90
2023-02-17T13:34:30.112Z,64.40
2023-02-17T13:37:01.175Z,64.60
2023-02-17T13:39:37.028Z,64.70
2023-02-17T13:42:07.612Z,65.30
2023-02-17T13:44:41.934Z,66.40
2023-02-17T13:47:17.831Z,66.40
2023-02-17T13:49:54.089Z,66.70
2023-02-17T13:52:27.206Z,66.50
2023-02-17T13:54:57.627Z,66.40
2023-02-17T13:57:28.154Z,66.40
2023-02-17T14:00:09.352Z,66.40
2023-02-17T14:02:46.751Z,66.30
2023-02-17T14:05:20.273Z,66.40
2023-02-17T14:07:49.678Z,66.90
2023-02-17T14:10:21.481Z,67.10
2023-02-17T14:12:50.231Z,67.50
2023-02-17T14:15:22.544Z,68.00
2023-02-17T14:17:51.100Z,68.30
2023-02-17T14:20:32.333Z,68.70
2023-02-17T14:23:05.779Z,68.70
2023-02-17T14:25:36.803Z,68.90
2023-02-17T14:28:06.240Z,69.10
2023-02-17T14:30:38.601Z,69.10
2023-02-17T14:33:09.221Z,69.50
2023-02-17T14:35:39.631Z,69.80
2023-02-17T14:38:10.999Z,70.00
2023-02-17T14:40:40.360Z,70.20
2023-02-17T14:43:08.740Z,70.30
2023-02-17T14:45:38.508Z,70.50
2023-02-17T14:48:07.322Z,70.60
2023-02-17T14:50:42.257Z,70.90
2023-02-17T14:53:15.011Z,71.10
2023-02-17T14:55:49.020Z,71.30
2023-02-17T14:58:21.115Z,72.30
2023-02-17T15:00:51.688Z,72.80
2023-02-17T15:03:20.100Z,72.40
2023-02-17T15:05:48.591Z,72.40
2023-02-17T15:08:20.060Z,72.70
2023-02-17T15:10:49.227Z,73.10
2023-02-17T15:13:19.897Z,73.10
2023-02-17T15:15:50.035Z,73.40
2023-02-17T15:18:20.927Z,74.40
2023-02-17T15:20:51.306Z,74.90
2023-02-17T15:23:21.328Z,75.40
2023-02-17T15:25:50.634Z,75.90
2023-02-17T15:28:20.703Z,76.40
2023-02-17T15:30:54.573Z,76.70
2023-02-17T15:33:25.608Z,76.90
2023-02-17T15:35:55.633Z,77.20
2023-02-17T15:38:25.056Z,77.50
2023-02-17T15:40:56.771Z,77.90
2023-02-17T15:43:37.775Z,78.40
2023-02-17T15:46:14.405Z,79.10
2023-02-17T15:48:43.808Z,82.60
2023-02-17T15:51:15.106Z,83.30
2023-02-17T15:53:43.802Z,83.50
2023-02-17T15:56:15.930Z,83.70
2023-02-17T15:58:45.392Z,84.00
2023-02-17T16:01:25.813Z,84.30
2023-02-17T16:03:55.475Z,84.60
2023-02-17T16:06:24.156Z,85.10
2023-02-17T16:08:52.486Z,85.30
2023-02-17T16:11:22.558Z,85.60
2023-02-17T16:13:52.513Z,86.90
2023-02-17T16:16:25.521Z,87.80
2023-02-17T16:18:54.042Z,89.90
2023-02-17T16:21:22.496Z,90.80
2023-02-17T16:23:52.783Z,90.70
2023-02-17T16:26:26.828Z,90.60
2023-02-17T16:28:55.878Z,90.80
2023-02-17T16:31:25.691Z,91.50
2023-02-17T16:33:59.591Z,91.80
2023-02-17T16:36:31.065Z,91.60
2023-02-17T16:39:01.608Z,91.50
2023-02-17T16:41:30.112Z,91.70
2023-02-17T16:43:58.529Z,91.60
2023-02-17T16:46:31.418Z,91.90
2023-02-17T16:49:01.059Z,92.00
2023-02-17T16:51:29.580Z,92.00
2023-02-17T16:53:58.107Z,92.30
2023-02-17T16:56:31.731Z,93.00
2023-02-17T16:59:00.042Z,93.20
2023-02-17T17:01:29.826Z,92.80
2023-02-17T17:03:58.215Z,92.40
2023-02-17T17:06:30.201Z,92.10
2023-02-17T17:08:58.886Z,91.80
2023-02-17T17:11:28.673Z,91.50
2023-02-17T17:13:57.070Z,91.80
2023-02-17T17:16:31.705Z,92.00
2023-02-17T17:19:00.518Z,93.30
2023-02-17T17:21:29.700Z,93.80
2023-02-17T17:23:58.046Z,94.90
2023-02-17T17:26:32.220Z,94.60
2023-02-17T17:29:01.093Z,94.20
2023-02-17T17:31:30.857Z,93.70
2023-02-17T17:33:59.309Z,93.40
2023-02-17T17:36:31.339Z,94.10
2023-02-17T17:39:00.990Z,93.80
2023-02-17T17:41:30.520Z,94.00
2023-02-17T17:43:58.964Z,94.60
2023-02-17T17:46:31.060Z,95.10
2023-02-17T17:49:00.829Z,95.00
2023-02-17T17:51:31.280Z,95.60
2023-02-17T17:53:59.958Z,95.30
2023-02-17T17:56:30.665Z,95.00
2023-02-17T17:59:01.132Z,95.10
2023-02-17T18:01:31.039Z,95.00
2023-02-17T18:04:00.346Z,94.40
2023-02-17T18:06:31.626Z,93.90
2023-02-17T18:09:04.498Z,93.70
2023-02-17T18:11:34.550Z,93.50
2023-02-17T18:14:05.435Z,93.10
2023-02-17T18:16:36.426Z,92.80
2023-02-17T18:19:08.015Z,92.40
2023-02-17T18:21:36.777Z,92.10
2023-02-17T18:24:05.557Z,91.90
2023-02-17T18:26:34.523Z,91.70
2023-02-17T18:29:03.398Z,91.90
2023-02-17T18:31:32.046Z,93.00
2023-02-17T18:34:01.742Z,93.50
2023-02-17T18:36:30.166Z,93.20
2023-02-17T18:38:58.529Z,92.80
2023-02-17T18:41:28.821Z,92.40
2023-02-17T18:43:59.290Z,92.20
2023-02-17T18:46:28.570Z,92.10
2023-02-17T18:48:57.814Z,91.70
2023-02-17T18:51:27.845Z,91.20
2023-02-17T18:53:57.742Z,90.80
2023-02-17T18:56:28.224Z,90.60
2023-02-17T18:58:56.969Z,91.00
2023-02-17T19:01:27.774Z,91.30
2023-02-17T19:03:56.781Z,91.50
2023-02-17T19:06:28.345Z,91.90
2023-02-17T19:08:57.157Z,91.80
2023-02-17T19:11:26.580Z,92.40
2023-02-17T19:13:55.069Z,92.30
2023-02-17T19:16:25.910Z,92.30
2023-02-17T19:18:54.948Z,92.50
2023-02-17T19:21:24.114Z,92.80
2023-02-17T19:23:53.841Z,92.80
2023-02-17T19:26:22.705Z,92.40
2023-02-17T19:28:51.261Z,91.90
2023-02-17T19:31:21.370Z,91.40
2023-02-17T19:33:49.800Z,91.10
2023-02-17T19:36:20.175Z,90.80
2023-02-17T19:38:49.707Z,90.50
2023-02-17T19:41:20.645Z,90.10
2023-02-17T19:43:49.849Z,89.50
2023-02-17T19:46:21.162Z,88.70
2023-02-17T19:48:50.167Z,88.20
2023-02-17T19:51:18.886Z,87.80
2023-02-17T19:53:47.382Z,87.70
2023-02-17T19:56:18.164Z,87.90
2023-02-17T19:58:48.830Z,88.20
2023-02-17T20:01:19.561Z,88.20
2023-02-17T20:03:48.122Z,88.30
2023-02-17T20:06:18.244Z,88.90
2023-02-17T20:08:47.592Z,88.70
2023-02-17T20:11:16.636Z,87.90
2023-02-17T20:13:46.533Z,86.90
2023-02-17T20:16:18.212Z,86.40
2023-02-17T20:18:48.644Z,85.90
2023-02-17T20:21:19.306Z,85.60
2023-02-17T20:23:48.005Z,85.40
2023-02-17T20:26:19.989Z,85.20
2023-02-17T20:28:49.189Z,84.90
2023-02-17T20:31:19.504Z,84.80
2023-02-17T20:33:48.541Z,84.80
2023-02-17T20:36:17.352Z,84.80
2023-02-17T20:38:46.075Z,85.30
2023-02-17T20:41:17.310Z,85.50
2023-02-17T20:43:46.228Z,85.80
2023-02-17T20:46:17.773Z,86.10
2023-02-17T20:48:47.656Z,86.40
2023-02-17T20:51:16.145Z,86.70
2023-02-17T20:53:44.656Z,86.90
2023-02-17T20:56:15.245Z,87.20
2023-02-17T20:58:43.707Z,87.30
2023-02-17T21:01:12.557Z,88.10
2023-02-17T21:03:41.141Z,87.50
2023-02-17T21:06:21.617Z,87.20
2023-02-17T21:08:51.783Z,87.30
2023-02-17T21:11:20.439Z,87.30
2023-02-17T21:13:49.171Z,87.50
2023-02-17T21:16:20.326Z,87.70
2023-02-17T21:18:49.248Z,88.00
2023-02-17T21:21:19.057Z,88.40
2023-02-17T21:23:48.079Z,88.90
2023-02-17T21:26:17.070Z,89.40
2023-02-17T21:28:45.636Z,90.00
2023-02-17T21:31:14.976Z,90.50
2023-02-17T21:33:43.528Z,91.00
2023-02-17T21:36:13.712Z,91.80
2023-02-17T21:38:43.733Z,92.60
2023-02-17T21:41:15.388Z,93.10
2023-02-17T21:44:01.461Z,93.70
2023-02-17T21:46:31.299Z,94.20
2023-02-17T21:49:01.430Z,94.90
2023-02-17T21:51:30.469Z,95.30
2023-02-17T21:54:00.342Z,96.10
2023-02-17T21:56:28.806Z,96.80
2023-02-17T21:58:57.727Z,97.30
2023-02-17T22:01:28.011Z,97.90
2023-02-17T22:03:57.880Z,98.30
2023-02-17T22:06:28.511Z,98.30
2023-02-17T22:08:57.851Z,98.40
2023-02-17T22:11:29.859Z,98.50
2023-02-17T22:13:59.397Z,98.50
2023-02-17T22:16:30.126Z,98.70
2023-02-17T22:18:58.874Z,98.80
2023-02-17T22:21:27.831Z,99.00
2023-02-17T22:23:56.263Z,99.00
2023-02-17T22:26:26.069Z,98.90
2023-02-17T22:28:56.283Z,99.00
2023-02-17T22:31:26.709Z,98.90
2023-02-17T22:33:56.668Z,98.80
2023-02-17T22:36:27.691Z,98.50
2023-02-17T22:38:56.383Z,98.50
2023-02-17T22:41:26.679Z,98.50
2023-02-17T22:43:56.449Z,99.00
2023-02-17T22:46:27.411Z,99.00
2023-02-17T22:48:57.043Z,99.40
2023-02-17T22:51:28.091Z,99.80
2023-02-17T22:53:56.787Z,99.90
2023-02-17T22:56:25.369Z,99.90
2023-02-17T22:58:56.557Z,99.90
2023-02-17T23:01:26.712Z,99.90
2023-02-17T23:03:55.352Z,99.90
2023-02-17T23:06:25.580Z,99.90
2023-02-17T23:08:54.983Z,99.90
2023-02-17T23:11:39.024Z,99.90
2023-02-17T23:14:07.621Z,99.90
2023-02-17T23:16:37.854Z,99.90
2023-02-17T23:19:10.129Z,99.90
2023-02-17T23:21:38.995Z,99.90
2023-02-17T23:24:07.803Z,99.90
2023-02-17T23:26:36.043Z,99.90
2023-02-17T23:29:04.477Z,99.90
2023-02-17T23:31:32.912Z,99.90
2023-02-17T23:34:02.682Z,99.90
2023-02-17T23:36:31.616Z,99.90
2023-02-17T23:39:00.377Z,99.90
2023-02-17T23:41:29.398Z,99.90
2023-02-17T23:43:57.884Z,99.90
2023-02-17T23:46:26.294Z,99.90
2023-02-17T23:48:54.739Z,99.90
2023-02-17T23:51:24.641Z,99.90
2023-02-17T23:53:53.191Z,99.90
2023-02-17T23:56:23.771Z,99.90
2023-02-17T23:58:52.454Z,99.90
